Edgarton, West Virginia
Current Conditions -  °F | °C
As of 9:35 PM on Sunday 21 Dec 2014 (Local Time) from KPBX Reporting Station
Clear Clear  
Wind Chill: 30°   Ceiling: Unl
Heat Index: 34°   Visibility: 10mi
Dew Point: 27°   Wind: 5mph
Humidity: 73%   Direction: 10°N
Pressure: 30.11"   Gusts: NA
Location:  37.57°N, 82.14°W
Report Text: KPBX 220235Z AUTO 01004KT 10SM CLR 01/M03 A3011 RMK AO2 T00131030
Loading
Personal Weather Stations






























Interactive Weather Map New forecast layout! Learn more

10-Day Weather Forecast

Advertisements
Track Severe Weather on mobile